Time;durP1;ratioP1;P1;durP2;ratioP2;P2;SDS_P1;SDS_P2;PMS_P1;PMS_P2;Temp;Humidity;BMP_temperature;BMP_pressure;BME280_temperature;BME280_humidity;BME280_pressure;Samples;Min_cycle;Max_cycle;Signal;HPM_P1;HPM_P2
2021/07/01 00:01:51;;;;;;;4.40;1.60;;;13.30;99.90;;;;;;5053593;28;20462;-78
2021/07/01 00:04:17;;;;;;;3.80;1.27;;;13.30;99.90;;;;;;5053829;28;20509;-76
2021/07/01 00:06:43;;;;;;;2.53;1.37;;;13.20;99.90;;;;;;5053841;28;20533;-77
2021/07/01 00:09:18;;;;;;;2.10;1.27;;;13.20;99.90;;;;;;5052876;28;20632;-77
2021/07/01 00:11:45;;;;;;;2.70;1.10;;;13.20;99.90;;;;;;5052949;28;20551;-77
2021/07/01 00:14:13;;;;;;;2.70;1.37;;;13.20;99.90;;;;;;5060447;28;20425;-79
2021/07/01 00:16:38;;;;;;;1.40;1.10;;;13.30;99.90;;;;;;5053603;28;20524;-76
2021/07/01 00:19:05;;;;;;;1.20;1.00;;;13.30;99.90;;;;;;5053525;28;20448;-76
2021/07/01 00:21:31;;;;;;;1.70;1.07;;;13.30;99.90;;;;;;5052721;28;20461;-77
2021/07/01 00:23:57;;;;;;;2.50;1.30;;;13.30;99.90;;;;;;5053353;28;20431;-76
2021/07/01 00:26:23;;;;;;;3.40;1.20;;;13.30;99.90;;;;;;5051735;28;20437;-76
2021/07/01 00:28:48;;;;;;;1.90;1.33;;;13.40;99.90;;;;;;5052848;28;20427;-78
2021/07/01 00:31:14;;;;;;;2.20;1.30;;;13.40;99.90;;;;;;5051993;28;20184;-76
2021/07/01 00:33:40;;;;;;;2.60;1.00;;;13.30;99.90;;;;;;5050864;28;20231;-76
2021/07/01 00:36:06;;;;;;;2.03;0.90;;;13.40;99.90;;;;;;5050934;28;20452;-77
2021/07/01 00:38:32;;;;;;;1.93;1.30;;;13.40;99.90;;;;;;5054525;28;20450;-77
2021/07/01 00:40:57;;;;;;;1.53;1.10;;;13.50;99.90;;;;;;5051588;28;20742;-77
2021/07/01 00:43:23;;;;;;;2.70;1.40;;;13.40;99.80;;;;;;5052479;28;20259;-78
2021/07/01 00:45:50;;;;;;;2.80;1.20;;;13.50;99.90;;;;;;5052515;28;20257;-77
2021/07/01 00:48:17;;;;;;;2.50;1.00;;;13.50;99.60;;;;;;5053454;28;20939;-77
2021/07/01 00:50:44;;;;;;;1.90;1.00;;;13.50;99.60;;;;;;5051063;28;20788;-79
2021/07/01 00:53:09;;;;;;;1.50;0.97;;;13.60;99.50;;;;;;5053034;28;20438;-78
2021/07/01 00:55:37;;;;;;;1.30;0.90;;;13.60;99.70;;;;;;5051374;28;20431;-78
2021/07/01 00:58:03;;;;;;;3.00;0.97;;;13.60;99.50;;;;;;5071906;28;20234;-76
2021/07/01 01:02:57;;;;;;;1.90;0.90;;;13.60;99.10;;;;;;5071604;28;20438;-78
2021/07/01 01:05:24;;;;;;;1.40;0.90;;;13.60;99.10;;;;;;5060356;28;20427;-78
2021/07/01 01:07:50;;;;;;;2.37;0.90;;;13.60;99.50;;;;;;5064710;28;20457;-78
2021/07/01 01:10:17;;;;;;;1.10;0.93;;;13.60;99.30;;;;;;5056449;28;20419;-79
2021/07/01 01:12:43;;;;;;;1.30;0.80;;;13.60;98.70;;;;;;5055554;28;20513;-80
2021/07/01 01:15:09;;;;;;;0.97;0.80;;;13.60;98.80;;;;;;5055910;28;20443;-80
2021/07/01 01:17:35;;;;;;;1.37;0.77;;;13.60;98.40;;;;;;5054020;28;20204;-79
2021/07/01 01:20:02;;;;;;;1.40;0.90;;;13.60;98.50;;;;;;5051725;28;20491;-77
2021/07/01 01:22:28;;;;;;;1.33;1.07;;;13.60;98.50;;;;;;5047801;28;20482;-78
2021/07/01 01:24:53;;;;;;;2.07;0.90;;;13.60;98.70;;;;;;5052914;28;20910;-77
2021/07/01 01:27:21;;;;;;;1.33;0.90;;;13.60;98.70;;;;;;5046269;28;20746;-78
2021/07/01 01:29:47;;;;;;;1.97;0.90;;;13.70;98.50;;;;;;5047926;28;20209;-77
2021/07/01 01:32:13;;;;;;;1.17;0.87;;;13.70;98.50;;;;;;5044647;28;20450;-78
2021/07/01 01:34:38;;;;;;;1.30;0.73;;;13.70;98.20;;;;;;5051958;28;20489;-78
2021/07/01 01:37:07;;;;;;;1.20;0.90;;;13.70;97.80;;;;;;5051595;28;20219;-78
2021/07/01 01:39:33;;;;;;;1.30;0.80;;;13.70;98.20;;;;;;5050122;28;20310;-78
2021/07/01 01:41:59;;;;;;;1.83;0.90;;;13.70;98.10;;;;;;5049467;28;20458;-79
2021/07/01 01:44:25;;;;;;;1.53;0.63;;;13.70;97.90;;;;;;5046574;28;20183;-78
2021/07/01 01:46:51;;;;;;;2.40;1.00;;;13.70;97.80;;;;;;5052065;28;20254;-77
2021/07/01 01:49:19;;;;;;;1.20;0.77;;;13.70;97.80;;;;;;5050523;28;20786;-80
2021/07/01 01:51:45;;;;;;;1.40;0.70;;;13.70;97.80;;;;;;5052685;28;20473;-77
2021/07/01 01:54:11;;;;;;;1.10;0.70;;;13.70;97.70;;;;;;5053408;28;20462;-78
2021/07/01 01:56:37;;;;;;;1.40;0.70;;;13.80;97.70;;;;;;5059593;28;20245;-77
2021/07/01 01:59:07;;;;;;;1.03;0.80;;;13.80;97.60;;;;;;5057433;28;20502;-77
2021/07/01 02:01:33;;;;;;;6.03;0.90;;;13.80;97.70;;;;;;5059143;28;20463;-77
2021/07/01 02:03:59;;;;;;;3.00;0.73;;;13.90;97.70;;;;;;5044932;28;20442;-77
2021/07/01 02:06:26;;;;;;;1.63;0.90;;;13.90;97.60;;;;;;5051250;28;20422;-77
2021/07/01 02:08:51;;;;;;;0.83;0.70;;;13.90;97.60;;;;;;5051050;28;20980;-77
2021/07/01 02:11:17;;;;;;;2.00;0.73;;;13.80;97.60;;;;;;5049585;28;20435;-79
2021/07/01 02:13:43;;;;;;;0.90;0.70;;;13.80;97.60;;;;;;5051592;28;20942;-78
2021/07/01 02:16:10;;;;;;;1.00;0.63;;;13.80;97.70;;;;;;5054912;28;20570;-80
2021/07/01 02:18:36;;;;;;;1.20;0.70;;;13.70;97.70;;;;;;5053431;28;20265;-78
2021/07/01 02:21:04;;;;;;;3.33;0.73;;;13.70;97.80;;;;;;5054155;28;20466;-78
2021/07/01 02:23:29;;;;;;;3.80;1.03;;;13.70;97.80;;;;;;5055112;28;20796;-78
2021/07/01 02:25:55;;;;;;;2.97;0.70;;;13.80;97.90;;;;;;5055845;28;20419;-80
2021/07/01 02:28:21;;;;;;;1.20;0.80;;;13.80;97.90;;;;;;5055734;28;20230;-78
2021/07/01 02:30:47;;;;;;;2.50;1.20;;;13.70;97.80;;;;;;5054497;28;20283;-78
2021/07/01 02:33:13;;;;;;;1.20;0.80;;;13.70;97.60;;;;;;5056015;28;20458;-79
2021/07/01 02:35:38;;;;;;;1.40;0.90;;;13.70;97.80;;;;;;5055525;28;20279;-77
2021/07/01 02:38:04;;;;;;;1.30;0.80;;;13.70;97.60;;;;;;5054574;28;20208;-79
2021/07/01 02:40:30;;;;;;;1.57;0.83;;;13.80;97.80;;;;;;5047372;28;20684;-77
2021/07/01 02:42:56;;;;;;;0.90;0.70;;;13.80;97.60;;;;;;5055186;28;20274;-77
2021/07/01 02:45:22;;;;;;;1.97;0.73;;;13.80;97.40;;;;;;5046701;28;20788;-77
2021/07/01 02:47:47;;;;;;;0.80;0.60;;;13.80;97.50;;;;;;5053725;28;20454;-78
2021/07/01 02:50:13;;;;;;;3.90;0.93;;;13.80;97.40;;;;;;5054350;28;20192;-77
2021/07/01 02:52:39;;;;;;;1.13;0.70;;;13.80;97.30;;;;;;5054498;28;20268;-78
2021/07/01 02:55:07;;;;;;;3.50;1.17;;;13.80;97.50;;;;;;5055307;28;20242;-79
2021/07/01 02:57:34;;;;;;;1.60;0.83;;;13.80;97.70;;;;;;5055159;28;20287;-78
2021/07/01 02:59:59;;;;;;;2.27;1.00;;;13.80;97.90;;;;;;5055057;28;20431;-77
2021/07/01 03:02:25;;;;;;;2.10;0.80;;;13.80;97.80;;;;;;5054237;28;20988;-78
2021/07/01 03:04:51;;;;;;;1.33;0.70;;;13.80;97.70;;;;;;5069126;28;20217;-78
2021/07/01 03:07:17;;;;;;;1.60;1.00;;;13.70;97.80;;;;;;5049424;28;20672;-79
2021/07/01 03:09:43;;;;;;;3.23;0.80;;;13.70;97.90;;;;;;5055839;28;20446;-79
2021/07/01 03:12:09;;;;;;;1.53;1.10;;;13.70;98.10;;;;;;5058814;28;20427;-78
2021/07/01 03:14:35;;;;;;;2.50;0.90;;;13.80;98.10;;;;;;5055527;28;20216;-78
2021/07/01 03:17:02;;;;;;;1.43;0.80;;;13.80;98.00;;;;;;5056896;28;20204;-77
2021/07/01 03:19:27;;;;;;;3.53;1.33;;;13.80;97.10;;;;;;5059911;28;20249;-78
2021/07/01 03:21:53;;;;;;;1.77;1.00;;;13.80;97.50;;;;;;5074833;28;20454;-78
2021/07/01 03:24:19;;;;;;;1.10;0.87;;;13.80;97.30;;;;;;5057988;28;20187;-79
2021/07/01 03:26:45;;;;;;;4.67;1.10;;;13.80;97.50;;;;;;5056455;28;20435;-79
2021/07/01 03:29:11;;;;;;;4.33;1.10;;;13.80;97.70;;;;;;5056084;28;20196;-78
2021/07/01 03:31:36;;;;;;;1.40;0.90;;;13.70;97.90;;;;;;5053852;28;20674;-79
2021/07/01 03:34:02;;;;;;;6.50;1.10;;;13.70;98.10;;;;;;5052589;28;20447;-80
2021/07/01 03:36:28;;;;;;;1.43;0.80;;;13.70;98.30;;;;;;5053816;28;20654;-78
2021/07/01 03:38:54;;;;;;;1.43;0.90;;;13.70;98.40;;;;;;5054694;28;20184;-76
2021/07/01 03:41:19;;;;;;;1.50;1.00;;;13.70;98.50;;;;;;5053641;28;20212;-79
2021/07/01 03:43:51;;;;;;;1.20;0.90;;;13.70;98.50;;;;;;5055149;28;20267;-80
2021/07/01 03:46:17;;;;;;;1.53;0.97;;;13.70;98.30;;;;;;5069528;28;20215;-78
2021/07/01 03:48:43;;;;;;;1.20;0.87;;;13.70;98.60;;;;;;5058264;28;20443;-78
2021/07/01 03:51:09;;;;;;;1.47;0.97;;;13.70;98.30;;;;;;5053792;28;20188;-77
2021/07/01 03:53:35;;;;;;;6.27;1.20;;;13.70;98.50;;;;;;5055129;28;20562;-77
2021/07/01 03:56:01;;;;;;;1.70;1.10;;;13.70;98.40;;;;;;5053896;28;20427;-79
2021/07/01 03:58:27;;;;;;;2.13;0.90;;;13.70;98.50;;;;;;5052596;28;20205;-79
2021/07/01 04:00:53;;;;;;;2.07;1.00;;;13.70;98.60;;;;;;5052071;28;20188;-78
2021/07/01 04:03:19;;;;;;;1.97;1.10;;;13.70;98.70;;;;;;5054543;28;20521;-79
2021/07/01 04:05:44;;;;;;;1.50;1.10;;;13.70;98.70;;;;;;5069597;28;20430;-78
2021/07/01 04:08:10;;;;;;;2.53;1.20;;;13.70;98.60;;;;;;5054139;28;20235;-77
2021/07/01 04:10:36;;;;;;;1.20;0.90;;;13.60;98.60;;;;;;5053331;28;20246;-77
2021/07/01 04:13:02;;;;;;;3.03;1.03;;;13.70;98.90;;;;;;5053392;28;20268;-78
2021/07/01 04:15:27;;;;;;;0.93;0.80;;;13.70;98.80;;;;;;5054244;28;20230;-79
2021/07/01 04:17:53;;;;;;;1.60;1.13;;;13.70;98.30;;;;;;5052794;28;20307;-79
2021/07/01 04:20:19;;;;;;;11.03;1.27;;;13.80;98.10;;;;;;5048068;28;20177;-78
2021/07/01 04:22:45;;;;;;;3.10;1.10;;;13.80;98.10;;;;;;5052460;28;20239;-76
2021/07/01 04:25:11;;;;;;;1.23;0.90;;;13.90;97.70;;;;;;5046729;28;20465;-78
2021/07/01 04:27:37;;;;;;;2.60;1.30;;;13.90;97.60;;;;;;5048646;28;20200;-76
2021/07/01 04:30:05;;;;;;;1.77;0.90;;;13.90;97.60;;;;;;5045620;28;20415;-78
2021/07/01 04:32:31;;;;;;;1.17;0.83;;;13.90;97.30;;;;;;5050941;28;20179;-78
2021/07/01 04:34:56;;;;;;;1.90;1.33;;;13.90;97.60;;;;;;5050244;28;20427;-78
2021/07/01 04:37:22;;;;;;;1.37;0.90;;;13.90;97.40;;;;;;5049994;28;20208;-79
2021/07/01 04:39:48;;;;;;;1.80;1.10;;;13.90;97.20;;;;;;5046700;28;20185;-78
2021/07/01 04:42:14;;;;;;;1.60;1.10;;;14.00;97.10;;;;;;5051629;28;20208;-78
2021/07/01 04:44:40;;;;;;;2.63;1.37;;;14.10;96.80;;;;;;5046237;28;20187;-78
2021/07/01 04:47:06;;;;;;;1.40;1.00;;;14.10;96.70;;;;;;5057453;28;20430;-78
2021/07/01 04:49:31;;;;;;;2.70;0.93;;;14.10;96.70;;;;;;5052444;28;20551;-77
2021/07/01 04:51:57;;;;;;;1.43;1.10;;;14.10;96.50;;;;;;5051533;28;20419;-78
2021/07/01 04:54:23;;;;;;;2.00;1.17;;;14.00;96.60;;;;;;5052707;28;20187;-78
2021/07/01 04:56:49;;;;;;;1.70;1.00;;;14.10;96.70;;;;;;5052291;28;20283;-78
2021/07/01 04:59:16;;;;;;;1.27;0.87;;;14.10;96.60;;;;;;5050309;28;20607;-78
2021/07/01 05:01:43;;;;;;;1.70;1.10;;;14.10;96.50;;;;;;5051317;28;20200;-78
2021/07/01 05:04:11;;;;;;;2.10;0.97;;;14.00;96.70;;;;;;5049358;28;20528;-78
2021/07/01 05:06:38;;;;;;;1.20;1.10;;;14.10;96.90;;;;;;5045063;28;20443;-78
2021/07/01 05:09:05;;;;;;;3.60;0.90;;;14.20;96.80;;;;;;5046885;28;20431;-77
2021/07/01 05:11:31;;;;;;;1.23;0.97;;;14.20;96.40;;;;;;5040818;28;20426;-77
2021/07/01 05:13:58;;;;;;;4.00;1.10;;;14.20;96.30;;;;;;5038742;28;20506;-78
2021/07/01 05:16:28;;;;;;;1.47;1.03;;;14.20;96.50;;;;;;5048979;28;20449;-78
2021/07/01 05:18:54;;;;;;;1.70;1.00;;;14.20;96.30;;;;;;5051802;28;20942;-78
2021/07/01 05:21:20;;;;;;;1.30;1.00;;;14.20;95.90;;;;;;5049667;28;20458;-77
2021/07/01 05:23:45;;;;;;;7.47;1.23;;;14.30;96.30;;;;;;5044632;28;20416;-79
2021/07/01 05:26:11;;;;;;;1.33;1.27;;;14.40;96.00;;;;;;5048153;28;20180;-78
2021/07/01 05:28:37;;;;;;;1.40;1.07;;;14.40;96.10;;;;;;5050987;28;20732;-77
2021/07/01 05:31:02;;;;;;;1.90;1.13;;;14.30;96.20;;;;;;5050384;28;20187;-78
2021/07/01 05:33:28;;;;;;;3.40;1.40;;;14.30;96.60;;;;;;5069999;28;20219;-77
2021/07/01 05:35:54;;;;;;;2.67;1.20;;;14.30;96.80;;;;;;5071617;28;20199;-77
2021/07/01 05:38:20;;;;;;;2.03;1.27;;;14.30;97.10;;;;;;5053482;28;20203;-77
2021/07/01 05:40:45;;;;;;;2.07;1.40;;;14.30;96.90;;;;;;5055108;28;20240;-77
2021/07/01 05:43:11;;;;;;;1.90;1.30;;;14.30;96.80;;;;;;5048558;28;20848;-78
2021/07/01 05:45:38;;;;;;;2.20;1.50;;;14.40;96.50;;;;;;5050812;28;20555;-79
2021/07/01 05:48:06;;;;;;;3.00;1.30;;;14.40;96.40;;;;;;5054951;28;20216;-79
2021/07/01 05:50:34;;;;;;;2.20;1.40;;;14.40;95.60;;;;;;5050147;28;20415;-78
2021/07/01 05:53:06;;;;;;;2.00;1.80;;;14.50;95.60;;;;;;5044633;28;20863;-79
2021/07/01 05:55:31;;;;;;;2.27;1.40;;;14.50;95.50;;;;;;5051663;28;20480;-78
2021/07/01 05:57:57;;;;;;;4.43;1.70;;;14.50;95.50;;;;;;5051297;28;20693;-77
2021/07/01 06:00:23;;;;;;;2.70;1.40;;;14.60;95.70;;;;;;5049014;28;20621;-77
2021/07/01 06:02:49;;;;;;;3.37;1.20;;;14.70;95.30;;;;;;5049874;28;20748;-78
2021/07/01 06:05:15;;;;;;;2.43;1.63;;;14.70;95.00;;;;;;5051060;28;20423;-77
2021/07/01 06:07:48;;;;;;;5.60;1.67;;;14.80;94.90;;;;;;5050319;28;20200;-77
2021/07/01 06:10:17;;;;;;;1.30;1.13;;;14.80;94.80;;;;;;5049012;28;20181;-78
2021/07/01 06:12:43;;;;;;;3.70;1.80;;;14.80;94.90;;;;;;5051595;28;20429;-79
2021/07/01 06:15:10;;;;;;;2.60;1.43;;;14.80;95.00;;;;;;5051498;28;20423;-78
2021/07/01 06:17:35;;;;;;;3.13;1.40;;;14.80;94.90;;;;;;5049523;28;20234;-78
2021/07/01 06:20:04;;;;;;;2.23;1.47;;;14.70;94.80;;;;;;5044242;28;20606;-78
2021/07/01 06:22:32;;;;;;;3.43;1.80;;;14.80;95.20;;;;;;5052333;28;20224;-78
2021/07/01 06:24:58;;;;;;;1.90;1.30;;;14.80;95.20;;;;;;5049132;28;20454;-78
2021/07/01 06:27:43;;;;;;;1.97;1.23;;;14.80;94.40;;;;;;5057775;28;20436;-77
2021/07/01 06:30:22;;;;;;;2.63;1.57;;;14.90;94.40;;;;;;5056360;28;20402;-77
2021/07/01 06:32:52;;;;;;;2.20;1.40;;;14.90;94.30;;;;;;5047175;28;20642;-77
2021/07/01 06:35:21;;;;;;;3.10;1.93;;;14.90;94.20;;;;;;5051163;28;20852;-79
2021/07/01 06:37:49;;;;;;;2.60;1.57;;;15.00;94.30;;;;;;5052829;28;20589;-78
2021/07/01 06:40:15;;;;;;;4.77;2.00;;;15.10;93.70;;;;;;5051098;28;20508;-78
2021/07/01 06:42:49;;;;;;;2.97;1.80;;;15.10;94.00;;;;;;5048807;28;20494;-78
2021/07/01 06:45:17;;;;;;;3.27;2.10;;;15.20;93.10;;;;;;5041867;28;20771;-77
2021/07/01 06:47:51;;;;;;;3.60;2.00;;;15.00;93.30;;;;;;5046642;28;20458;-79
2021/07/01 06:50:20;;;;;;;3.90;2.30;;;15.00;93.70;;;;;;5049331;28;20538;-79
2021/07/01 06:52:48;;;;;;;2.77;1.80;;;15.10;93.60;;;;;;5049137;28;20930;-78
2021/07/01 06:55:15;;;;;;;4.20;2.00;;;15.10;93.10;;;;;;5055398;28;20430;-78
2021/07/01 06:57:42;;;;;;;4.30;2.27;;;15.00;93.30;;;;;;5056178;28;20517;-78
2021/07/01 07:00:10;;;;;;;6.60;1.97;;;14.90;93.60;;;;;;5059158;28;20832;-77
2021/07/01 07:02:37;;;;;;;4.00;2.43;;;14.90;93.70;;;;;;5050774;28;20958;-77
2021/07/01 07:05:09;;;;;;;3.60;2.20;;;15.00;93.80;;;;;;5053243;28;20423;-76
2021/07/01 07:07:35;;;;;;;2.20;1.90;;;15.10;93.30;;;;;;5053339;28;20872;-78
2021/07/01 07:10:04;;;;;;;5.73;2.50;;;15.00;93.30;;;;;;5051903;28;20908;-77
2021/07/01 07:12:32;;;;;;;2.77;1.87;;;14.90;93.70;;;;;;5053042;28;20431;-77
2021/07/01 07:14:59;;;;;;;2.53;1.60;;;15.00;93.80;;;;;;5051545;28;20430;-77
2021/07/01 07:17:28;;;;;;;3.90;1.80;;;15.00;93.60;;;;;;5053525;28;20436;-78
2021/07/01 07:20:00;;;;;;;3.80;2.00;;;15.00;93.60;;;;;;5053584;28;20433;-77
2021/07/01 07:22:30;;;;;;;2.90;1.90;;;15.10;93.50;;;;;;5053862;28;20589;-78
2021/07/01 07:25:01;;;;;;;5.60;3.20;;;15.20;93.20;;;;;;5053428;28;20420;-77
2021/07/01 07:27:28;;;;;;;2.90;1.73;;;15.30;93.40;;;;;;5051295;28;20807;-80
2021/07/01 07:29:55;;;;;;;2.83;1.90;;;15.50;93.30;;;;;;5052052;28;20420;-78
2021/07/01 07:32:23;;;;;;;3.87;1.90;;;15.60;92.30;;;;;;5044787;28;21044;-77
2021/07/01 07:34:50;;;;;;;4.17;2.53;;;15.80;91.80;;;;;;5051742;28;20522;-76
2021/07/01 07:37:17;;;;;;;3.57;2.20;;;15.90;91.60;;;;;;5045838;28;20892;-78
2021/07/01 07:39:47;;;;;;;4.57;2.60;;;16.10;91.80;;;;;;5044713;28;20697;-77
2021/07/01 07:42:14;;;;;;;5.00;2.47;;;16.20;90.30;;;;;;5051648;28;20523;-76
2021/07/01 07:44:40;;;;;;;3.23;1.90;;;16.40;90.10;;;;;;5052183;28;20423;-77
2021/07/01 07:47:14;;;;;;;3.27;2.23;;;16.40;88.90;;;;;;5052228;28;20450;-77
2021/07/01 07:49:41;;;;;;;3.17;2.20;;;16.50;89.60;;;;;;5051845;28;20600;-77
2021/07/01 07:52:10;;;;;;;3.20;1.90;;;16.70;88.30;;;;;;5051046;28;20431;-77
2021/07/01 07:54:47;;;;;;;2.57;2.10;;;17.00;88.40;;;;;;5052103;28;20415;-77
2021/07/01 07:57:14;;;;;;;4.00;2.73;;;17.00;87.80;;;;;;5048317;28;20466;-77
2021/07/01 07:59:44;;;;;;;3.50;2.10;;;17.00;87.30;;;;;;5050599;28;20939;-75
2021/07/01 08:02:21;;;;;;;4.17;2.90;;;17.00;87.70;;;;;;5046351;28;20469;-76
2021/07/01 08:04:49;;;;;;;3.83;2.50;;;17.00;87.30;;;;;;5053884;28;20419;-76
2021/07/01 08:07:16;;;;;;;2.67;2.37;;;16.90;87.40;;;;;;5055571;28;20591;-78
2021/07/01 08:09:42;;;;;;;3.03;2.10;;;17.00;87.70;;;;;;5057740;28;20420;-76
2021/07/01 08:12:09;;;;;;;4.10;2.80;;;17.10;85.20;;;;;;5053464;28;20959;-78
2021/07/01 08:14:41;;;;;;;4.37;2.80;;;17.00;86.60;;;;;;5052845;28;20430;-79
2021/07/01 08:17:07;;;;;;;3.20;2.30;;;16.90;86.00;;;;;;5056465;28;20464;-76
2021/07/01 08:19:35;;;;;;;6.47;2.50;;;16.80;86.30;;;;;;5057647;28;20427;-77
2021/07/01 08:22:01;;;;;;;4.30;2.83;;;16.90;85.60;;;;;;5050440;28;20518;-77
2021/07/01 08:24:29;;;;;;;4.37;2.70;;;16.70;85.90;;;;;;5051741;28;20419;-78
2021/07/01 08:26:54;;;;;;;4.77;2.97;;;16.90;86.80;;;;;;5051677;28;20962;-76
2021/07/01 08:29:21;;;;;;;3.57;2.43;;;16.80;85.00;;;;;;5050285;28;20533;-77
2021/07/01 08:31:48;;;;;;;4.40;2.87;;;16.60;84.70;;;;;;5043538;28;20185;-78
2021/07/01 08:34:20;;;;;;;3.60;2.90;;;16.50;86.20;;;;;;5048535;28;20435;-77
2021/07/01 08:36:46;;;;;;;4.40;2.70;;;16.60;86.90;;;;;;5049541;28;20446;-78
2021/07/01 08:39:12;;;;;;;3.90;2.70;;;16.70;84.90;;;;;;5045819;28;21064;-78
2021/07/01 08:41:43;;;;;;;4.40;2.87;;;17.10;83.70;;;;;;5046842;28;20553;-76
2021/07/01 08:44:22;;;;;;;4.27;2.87;;;17.00;82.70;;;;;;5051515;28;20179;-78
2021/07/01 08:46:49;;;;;;;5.83;2.63;;;16.80;84.00;;;;;;5053513;28;20451;-77
2021/07/01 08:49:37;;;;;;;4.77;3.03;;;17.00;83.80;;;;;;5049676;28;20541;-77
2021/07/01 08:52:06;;;;;;;6.17;3.10;;;17.20;83.80;;;;;;5050009;28;20905;-77
2021/07/01 08:54:36;;;;;;;5.73;2.83;;;17.20;83.70;;;;;;5051384;28;20461;-78
2021/07/01 08:57:12;;;;;;;7.30;3.43;;;17.40;83.10;;;;;;5044274;28;20948;-78
2021/07/01 08:59:39;;;;;;;5.30;2.83;;;17.60;81.50;;;;;;5047652;28;20427;-78
2021/07/01 09:02:09;;;;;;;4.50;2.80;;;17.60;79.20;;;;;;5048522;28;20516;-77
2021/07/01 09:04:49;;;;;;;4.30;3.30;;;17.70;78.70;;;;;;5049625;28;21049;-78
2021/07/01 09:07:23;;;;;;;3.30;2.27;;;17.70;79.30;;;;;;5044940;28;20454;-77
2021/07/01 09:09:59;;;;;;;5.40;2.70;;;17.50;78.60;;;;;;5049251;28;20772;-77
2021/07/01 09:12:26;;;;;;;4.83;2.97;;;17.60;80.20;;;;;;5050945;28;20839;-79
2021/07/01 09:15:01;;;;;;;3.40;2.73;;;17.80;79.60;;;;;;5052833;28;20434;-79
2021/07/01 09:17:33;;;;;;;7.70;3.10;;;17.20;79.70;;;;;;5051299;28;20442;-79
2021/07/01 09:20:05;;;;;;;3.37;2.60;;;17.10;81.20;;;;;;5055137;28;20426;-78
2021/07/01 09:22:31;;;;;;;4.40;2.70;;;17.10;82.50;;;;;;5052101;28;20465;-78
2021/07/01 09:24:57;;;;;;;3.70;2.70;;;17.40;83.30;;;;;;5053102;28;20787;-78
2021/07/01 09:27:25;;;;;;;6.87;3.43;;;17.40;81.50;;;;;;5051818;28;20442;-78
2021/07/01 09:29:53;;;;;;;4.60;2.87;;;17.50;81.20;;;;;;5052595;28;20453;-78
2021/07/01 09:32:20;;;;;;;3.80;2.83;;;17.50;80.60;;;;;;5052692;28;20419;-79
2021/07/01 09:34:48;;;;;;;7.60;3.80;;;17.50;80.80;;;;;;5052299;28;20493;-77
2021/07/01 09:37:14;;;;;;;3.90;3.10;;;17.60;79.60;;;;;;5054331;28;20553;-80
2021/07/01 09:39:41;;;;;;;4.83;3.10;;;17.60;79.20;;;;;;5052360;28;20454;-77
2021/07/01 09:42:08;;;;;;;4.60;3.17;;;17.80;79.60;;;;;;5052872;28;20902;-79
2021/07/01 09:44:36;;;;;;;7.43;3.10;;;18.30;78.40;;;;;;5051538;28;21235;-80
2021/07/01 09:47:06;;;;;;;3.70;3.13;;;18.40;76.70;;;;;;5052526;28;20956;-78
2021/07/01 09:49:34;;;;;;;5.80;3.43;;;18.40;77.40;;;;;;5051198;28;20437;-78
2021/07/01 09:52:09;;;;;;;4.83;3.30;;;18.20;78.00;;;;;;5052297;28;20493;-78
2021/07/01 09:54:38;;;;;;;4.83;2.90;;;18.40;76.50;;;;;;5053710;28;20436;-77
2021/07/01 09:57:16;;;;;;;5.07;2.60;;;18.10;76.20;;;;;;5052833;28;20439;-77
2021/07/01 09:59:52;;;;;;;3.97;2.57;;;17.90;78.00;;;;;;5051676;28;20799;-78
2021/07/01 10:02:21;;;;;;;4.40;2.93;;;18.00;77.70;;;;;;5047622;28;20841;-79
2021/07/01 10:04:47;;;;;;;8.93;3.10;;;17.90;78.40;;;;;;5052761;28;20752;-80
2021/07/01 10:07:21;;;;;;;5.00;3.37;;;18.00;77.70;;;;;;5053949;28;20443;-79
2021/07/01 10:09:54;;;;;;;5.57;2.97;;;18.00;77.30;;;;;;5052143;28;20426;-79
2021/07/01 10:12:30;;;;;;;3.50;2.70;;;17.90;76.50;;;;;;5057117;28;20575;-77
2021/07/01 10:15:01;;;;;;;3.17;2.60;;;17.80;77.10;;;;;;5056398;28;20967;-78
2021/07/01 10:17:28;;;;;;;3.67;2.77;;;17.60;78.00;;;;;;5052582;28;20457;-76
2021/07/01 10:20:11;;;;;;;3.80;2.93;;;17.50;78.60;;;;;;5052818;28;20445;-78
2021/07/01 10:22:39;;;;;;;3.60;2.67;;;17.40;77.70;;;;;;5052306;28;20469;-78
2021/07/01 10:25:06;;;;;;;3.70;2.70;;;17.20;78.40;;;;;;5051684;28;20434;-77
2021/07/01 10:27:35;;;;;;;4.27;2.60;;;17.20;79.90;;;;;;5051314;28;20457;-78
2021/07/01 10:30:12;;;;;;;5.37;2.67;;;17.00;80.60;;;;;;5058230;28;20441;-78
2021/07/01 10:32:46;;;;;;;4.60;2.87;;;17.00;82.10;;;;;;5052552;28;20447;-77
2021/07/01 10:35:23;;;;;;;3.53;2.70;;;17.20;81.90;;;;;;5052389;28;20448;-77
2021/07/01 10:37:59;;;;;;;3.30;2.30;;;17.30;80.80;;;;;;5055947;28;20449;-79
2021/07/01 10:40:25;;;;;;;2.63;2.03;;;17.30;78.60;;;;;;5056459;28;20422;-78
2021/07/01 10:42:54;;;;;;;3.17;2.57;;;17.30;77.30;;;;;;5056137;28;20468;-81
2021/07/01 10:45:20;;;;;;;3.10;2.37;;;17.10;78.70;;;;;;5057776;28;20425;-79
2021/07/01 10:47:46;;;;;;;3.20;2.47;;;17.00;79.20;;;;;;5055685;28;20507;-80
2021/07/01 10:50:21;;;;;;;3.70;2.50;;;17.10;79.60;;;;;;5056435;28;20187;-79
2021/07/01 10:52:48;;;;;;;3.13;2.50;;;17.10;79.90;;;;;;5053858;28;20478;-78
2021/07/01 10:55:16;;;;;;;3.37;2.53;;;17.00;80.50;;;;;;5055415;28;20487;-77
2021/07/01 10:57:51;;;;;;;5.20;2.83;;;16.80;84.60;;;;;;5056493;28;20449;-78
2021/07/01 11:00:17;;;;;;;3.20;2.10;;;16.60;86.60;;;;;;5056017;28;20465;-80
2021/07/01 11:02:50;;;;;;;4.37;2.20;;;16.30;87.00;;;;;;5054585;28;20506;-79
2021/07/01 11:05:16;;;;;;;3.80;2.03;;;16.20;88.70;;;;;;5054263;28;20431;-81
2021/07/01 11:07:43;;;;;;;3.30;2.37;;;16.30;88.70;;;;;;5054711;28;20504;-79
2021/07/01 11:10:10;;;;;;;2.40;2.17;;;16.40;87.30;;;;;;5066760;28;20451;-79
2021/07/01 11:12:45;;;;;;;3.50;2.37;;;16.40;86.90;;;;;;5054453;28;20428;-79
2021/07/01 11:15:12;;;;;;;5.00;2.40;;;16.20;86.60;;;;;;5055677;28;20497;-82
2021/07/01 11:17:42;;;;;;;7.43;2.77;;;16.30;87.00;;;;;;5066519;28;20485;-77
2021/07/01 11:20:20;;;;;;;3.63;2.53;;;16.40;86.90;;;;;;5055178;28;20437;-79
2021/07/01 11:22:56;;;;;;;5.30;3.17;;;16.40;85.50;;;;;;5055110;28;20456;-77
2021/07/01 11:25:37;;;;;;;3.20;2.30;;;16.50;85.30;;;;;;5055362;28;20436;-79
2021/07/01 11:28:18;;;;;;;5.03;2.10;;;16.60;85.20;;;;;;5055923;28;20481;-79
2021/07/01 11:30:50;;;;;;;5.33;3.30;;;16.70;85.60;;;;;;5054737;28;20430;-77
2021/07/01 11:33:17;;;;;;;2.80;2.30;;;16.80;84.60;;;;;;5054973;28;20986;-79
2021/07/01 11:35:44;;;;;;;4.50;2.97;;;16.70;84.60;;;;;;5055559;28;20866;-78
2021/07/01 11:38:28;;;;;;;4.37;3.10;;;16.80;83.60;;;;;;5047484;28;20454;-79
2021/07/01 11:40:55;;;;;;;3.70;2.60;;;16.70;83.00;;;;;;5054528;28;20429;-79
2021/07/01 11:43:22;;;;;;;3.50;2.03;;;16.60;83.60;;;;;;5056056;28;20983;-80
2021/07/01 11:45:50;;;;;;;5.03;2.70;;;16.60;83.60;;;;;;5056043;28;20431;-80
2021/07/01 11:48:21;;;;;;;3.23;2.70;;;16.30;84.00;;;;;;5054973;28;20435;-80
2021/07/01 11:50:49;;;;;;;5.60;2.73;;;16.30;84.70;;;;;;5046187;28;20513;-79
2021/07/01 11:53:16;;;;;;;3.80;2.40;;;16.30;85.30;;;;;;5053779;28;20546;-78
2021/07/01 11:55:46;;;;;;;3.70;2.60;;;16.40;84.70;;;;;;5054611;28;20510;-80
2021/07/01 11:58:12;;;;;;;3.60;2.73;;;16.40;84.30;;;;;;5054866;28;20957;-80
2021/07/01 12:00:38;;;;;;;5.80;2.90;;;16.40;84.70;;;;;;5054481;28;20427;-75
2021/07/01 12:03:05;;;;;;;5.00;2.90;;;16.50;84.60;;;;;;5054197;28;20472;-79
2021/07/01 12:05:33;;;;;;;3.10;2.30;;;16.70;84.00;;;;;;5051278;28;20971;-79
2021/07/01 12:07:59;;;;;;;2.57;2.23;;;16.80;83.60;;;;;;5051682;28;20501;-80
2021/07/01 12:10:25;;;;;;;5.23;2.77;;;16.90;83.10;;;;;;5053968;28;20979;-79
2021/07/01 12:12:51;;;;;;;5.37;2.90;;;17.10;82.40;;;;;;5058727;28;20430;-77
2021/07/01 12:15:17;;;;;;;5.50;3.10;;;17.20;81.80;;;;;;5062117;28;20864;-81
2021/07/01 12:18:04;;;;;;;5.53;2.97;;;17.40;81.20;;;;;;5054181;28;20847;-78
2021/07/01 12:20:31;;;;;;;3.93;2.60;;;17.40;81.90;;;;;;5052278;28;20446;-75
2021/07/01 12:22:58;;;;;;;4.40;3.17;;;17.60;80.30;;;;;;5054364;28;20519;-79
2021/07/01 12:25:27;;;;;;;4.83;3.53;;;17.60;79.50;;;;;;5054135;28;20469;-76
2021/07/01 12:28:22;;;;;;;5.80;3.83;;;17.70;79.20;;;;;;5053461;28;20807;-78
2021/07/01 12:30:49;;;;;;;5.90;3.00;;;18.00;77.00;;;;;;5066674;28;20482;-77
2021/07/01 12:33:35;;;;;;;5.67;3.37;;;18.20;76.70;;;;;;5053904;28;20521;-77
2021/07/01 12:36:07;;;;;;;7.60;3.20;;;18.50;74.80;;;;;;5050571;28;20431;-79
2021/07/01 12:38:33;;;;;;;4.07;3.13;;;18.80;72.70;;;;;;5053971;28;20471;-79
2021/07/01 12:41:01;;;;;;;6.83;3.63;;;18.70;72.00;;;;;;5053391;28;20431;-78
2021/07/01 12:43:43;;;;;;;6.17;3.37;;;18.80;71.70;;;;;;5054645;28;20415;-77
2021/07/01 12:46:09;;;;;;;4.40;3.20;;;19.10;72.40;;;;;;5049118;28;20816;-78
2021/07/01 12:48:40;;;;;;;6.53;3.50;;;19.30;70.20;;;;;;5055229;28;21144;-79
2021/07/01 12:51:43;;;;;;;5.43;3.60;;;19.40;70.80;;;;;;5047548;28;20414;-79
2021/07/01 12:54:25;;;;;;;3.97;2.87;;;19.30;71.30;;;;;;5056176;28;20415;-79
2021/07/01 12:57:12;;;;;;;6.07;3.43;;;19.40;70.40;;;;;;5067798;28;20468;-78